Time;durP1;ratioP1;P1;durP2;ratioP2;P2;SDS_P1;SDS_P2;PMS_P1;PMS_P2;Temp;Humidity;BMP_temperature;BMP_pressure;BME280_temperature;BME280_humidity;BME280_pressure;Samples;Min_cycle;Max_cycle;Signal;HPM_P1;HPM_P2
2023/01/17 10:56:15;;;;;;;5.68;1.92;;;17.70;41.70;;;;;;5107131;27;20609;-75
2023/01/17 10:58:42;;;;;;;8.15;1.83;;;17.70;42.20;;;;;;5076681;28;20225;-73
2023/01/17 11:01:17;;;;;;;9.27;1.80;;;17.70;42.30;;;;;;5084589;28;20659;-76
2023/01/17 11:03:49;;;;;;;4.22;1.67;;;17.70;42.40;;;;;;5078105;28;20218;-77
2023/01/17 11:06:19;;;;;;;4.63;1.85;;;17.80;42.50;;;;;;5085946;28;20782;-75
2023/01/17 11:08:54;;;;;;;7.47;1.70;;;17.80;42.50;;;;;;5079318;28;20214;-76
2023/01/17 11:11:28;;;;;;;2.53;1.50;;;17.80;42.40;;;;;;5085514;28;20198;-75
2023/01/17 11:13:59;;;;;;;3.58;1.60;;;17.80;42.40;;;;;;5065806;28;20222;-72
2023/01/17 11:16:30;;;;;;;2.03;1.60;;;17.90;42.50;;;;;;5080925;28;20774;-73
2023/01/17 11:19:13;;;;;;;6.60;1.75;;;17.90;42.30;;;;;;5086396;28;20253;-72
2023/01/17 11:21:50;;;;;;;1.92;1.48;;;17.90;42.10;;;;;;5083473;28;20530;-72
2023/01/17 11:24:26;;;;;;;6.55;1.70;;;17.90;41.80;;;;;;5083704;28;20707;-73
2023/01/17 11:26:55;;;;;;;3.70;1.30;;;17.90;42.00;;;;;;5086476;28;20247;-72
2023/01/17 11:29:32;;;;;;;5.35;1.30;;;17.90;41.80;;;;;;5086487;28;20399;-72
2023/01/17 11:32:29;;;;;;;2.53;1.70;;;17.90;41.70;;;;;;5082411;28;20194;-73
2023/01/17 11:35:19;;;;;;;3.83;1.67;;;17.90;41.50;;;;;;5076786;28;20227;-74
2023/01/17 11:37:52;;;;;;;2.55;1.70;;;17.90;41.70;;;;;;5086549;28;20230;-72
2023/01/17 11:40:26;;;;;;;3.63;1.50;;;17.90;41.70;;;;;;5083318;28;20191;-73
2023/01/17 11:43:03;;;;;;;2.60;1.25;;;18.00;41.80;;;;;;5086860;28;20642;-74
2023/01/17 11:45:31;;;;;;;2.63;1.48;;;18.00;41.60;;;;;;5081720;28;20239;-74
2023/01/17 11:48:14;;;;;;;2.67;1.45;;;18.00;41.60;;;;;;5088170;28;20372;-74
2023/01/17 11:50:43;;;;;;;2.17;1.25;;;18.00;41.50;;;;;;5084016;28;20730;-73
2023/01/17 11:53:21;;;;;;;1.60;1.40;;;18.00;41.60;;;;;;5082931;28;20269;-74
2023/01/17 11:55:57;;;;;;;2.90;1.42;;;18.00;41.40;;;;;;5082791;28;20287;-74
2023/01/17 11:58:27;;;;;;;3.97;1.60;;;18.00;41.30;;;;;;5084465;28;20214;-73
2023/01/17 12:01:29;;;;;;;3.40;1.50;;;18.00;41.40;;;;;;5083217;28;20774;-73
2023/01/17 12:04:23;;;;;;;2.17;1.50;;;18.00;41.30;;;;;;5020765;28;20228;-73
2023/01/17 12:07:13;;;;;;;4.45;1.77;;;18.00;41.30;;;;;;5008709;28;20275;-73
2023/01/17 12:09:46;;;;;;;3.85;2.38;;;18.00;41.30;;;;;;4950612;29;20207;-74
2023/01/17 12:15:22;;;;;;;4.22;1.77;;;17.90;41.10;;;;;;4948942;29;20226;-75
2023/01/17 12:18:08;;;;;;;2.95;1.65;;;17.90;41.20;;;;;;4949854;29;20231;-74
2023/01/17 12:20:45;;;;;;;2.17;1.63;;;18.00;41.20;;;;;;4948178;29;20207;-73
2023/01/17 12:23:29;;;;;;;3.28;1.67;;;18.00;41.20;;;;;;4949582;28;20239;-73
2023/01/17 12:26:11;;;;;;;2.20;1.60;;;17.90;41.00;;;;;;4947943;29;20653;-74
2023/01/17 12:29:13;;;;;;;2.90;1.73;;;18.00;41.00;;;;;;4949123;29;20757;-74
2023/01/17 12:31:51;;;;;;;2.17;1.40;;;17.90;40.90;;;;;;4942144;29;20210;-73
2023/01/17 12:34:25;;;;;;;2.40;1.65;;;18.00;41.00;;;;;;4948933;29;20309;-74
2023/01/17 12:36:54;;;;;;;2.63;1.60;;;18.00;41.00;;;;;;4950355;29;20207;-73
2023/01/17 12:39:26;;;;;;;1.80;1.50;;;18.00;41.20;;;;;;4951536;28;20265;-73
2023/01/17 12:42:01;;;;;;;2.30;1.70;;;18.00;41.00;;;;;;5004677;28;20671;-73
2023/01/17 12:44:39;;;;;;;2.88;1.73;;;18.00;40.90;;;;;;5010226;28;20224;-74
2023/01/17 12:47:07;;;;;;;3.22;1.73;;;18.00;40.80;;;;;;5041478;28;20271;-74
2023/01/17 12:49:42;;;;;;;2.75;1.88;;;17.90;40.60;;;;;;5072578;28;20284;-74
2023/01/17 12:52:18;;;;;;;2.03;1.55;;;18.00;40.70;;;;;;5072787;28;20652;-74
2023/01/17 12:54:50;;;;;;;4.60;2.00;;;17.90;40.80;;;;;;5071539;28;20238;-74
2023/01/17 12:57:22;;;;;;;16.05;1.98;;;18.00;40.80;;;;;;5060692;28;20674;-74
2023/01/17 12:59:58;;;;;;;2.22;1.48;;;18.00;40.70;;;;;;5068041;28;20193;-73
2023/01/17 13:02:36;;;;;;;5.43;1.63;;;18.00;40.70;;;;;;5058571;28;20195;-74
2023/01/17 13:05:11;;;;;;;2.05;1.55;;;18.10;40.90;;;;;;5069451;28;20323;-74
2023/01/17 13:07:46;;;;;;;5.45;1.65;;;18.10;40.90;;;;;;5062793;28;20234;-75
2023/01/17 13:10:27;;;;;;;2.30;1.40;;;18.10;40.90;;;;;;5063207;28;20195;-74
2023/01/17 13:12:59;;;;;;;1.88;1.40;;;18.10;40.90;;;;;;5075161;28;20332;-76
2023/01/17 13:15:31;;;;;;;5.60;1.58;;;18.10;40.80;;;;;;5070342;28;20264;-74
2023/01/17 13:18:05;;;;;;;3.00;1.90;;;18.10;40.80;;;;;;5058713;28;20314;-75
2023/01/17 13:20:45;;;;;;;5.15;1.63;;;18.20;40.80;;;;;;5068441;28;20230;-76
2023/01/17 13:23:24;;;;;;;2.47;1.60;;;18.20;40.80;;;;;;5066837;28;20577;-76
2023/01/17 13:25:51;;;;;;;6.50;1.90;;;18.20;40.80;;;;;;5068587;28;20200;-74
2023/01/17 13:28:26;;;;;;;2.30;1.58;;;18.20;40.90;;;;;;5070253;28;20300;-75
2023/01/17 13:31:19;;;;;;;3.17;1.85;;;18.20;40.90;;;;;;5069843;28;20687;-76
2023/01/17 13:34:09;;;;;;;2.90;1.48;;;18.20;40.80;;;;;;5053566;28;20218;-75
2023/01/17 13:36:49;;;;;;;1.90;1.67;;;18.30;41.00;;;;;;5065434;28;20639;-77
2023/01/17 13:39:37;;;;;;;2.22;1.48;;;18.30;41.00;;;;;;5069489;28;20227;-75
2023/01/17 13:42:12;;;;;;;4.50;2.10;;;18.30;40.90;;;;;;5069259;28;20241;-74
2023/01/17 13:44:39;;;;;;;3.92;1.60;;;18.40;41.00;;;;;;5070078;28;20276;-74
2023/01/17 13:47:27;;;;;;;2.83;1.60;;;18.30;40.90;;;;;;5069522;28;20591;-74
2023/01/17 13:49:56;;;;;;;3.05;1.58;;;18.40;41.00;;;;;;5067172;28;20600;-76
2023/01/17 13:52:34;;;;;;;3.17;1.77;;;18.40;40.90;;;;;;5070316;28;20582;-76
2023/01/17 13:55:02;;;;;;;2.55;1.77;;;18.40;40.90;;;;;;5067958;28;20270;-75
2023/01/17 13:57:40;;;;;;;2.90;1.63;;;18.40;41.00;;;;;;5069225;28;20198;-74
2023/01/17 14:00:49;;;;;;;4.82;1.50;;;18.40;40.90;;;;;;5067052;28;20285;-75
2023/01/17 14:04:06;;;;;;;7.35;1.75;;;18.50;40.90;;;;;;5069413;28;20272;-75
2023/01/17 14:06:43;;;;;;;3.42;1.40;;;18.50;40.80;;;;;;5006993;28;20194;-75
2023/01/17 14:09:21;;;;;;;3.42;1.60;;;18.50;40.90;;;;;;5007103;28;20714;-75
2023/01/17 14:11:58;;;;;;;2.47;1.48;;;18.50;40.90;;;;;;5007213;28;20726;-75
2023/01/17 14:14:52;;;;;;;2.83;1.45;;;18.50;40.80;;;;;;5007404;28;20224;-75
2023/01/17 14:17:50;;;;;;;2.75;1.80;;;18.60;40.80;;;;;;5006966;28;20204;-75
2023/01/17 14:20:53;;;;;;;2.35;1.55;;;18.50;40.60;;;;;;5007299;28;20197;-75
2023/01/17 14:23:50;;;;;;;2.20;1.70;;;18.50;40.50;;;;;;5007158;28;20252;-75
2023/01/17 14:26:50;;;;;;;2.47;1.75;;;18.50;40.60;;;;;;5004111;28;20189;-75
2023/01/17 14:29:51;;;;;;;4.00;1.50;;;18.50;40.60;;;;;;4971647;28;20220;-75
2023/01/17 14:32:20;;;;;;;3.80;1.50;;;18.60;40.80;;;;;;5003160;28;20200;-75
2023/01/17 14:34:49;;;;;;;2.80;1.50;;;18.60;40.70;;;;;;4998699;28;20276;-74
2023/01/17 14:37:23;;;;;;;4.15;1.55;;;18.60;40.60;;;;;;5001233;28;21293;-75
2023/01/17 14:39:51;;;;;;;1.52;1.30;;;18.60;40.50;;;;;;5010905;28;20251;-75
2023/01/17 14:42:22;;;;;;;1.73;1.40;;;18.60;40.50;;;;;;5067078;28;20967;-74
2023/01/17 14:44:52;;;;;;;2.55;1.60;;;18.60;40.50;;;;;;5066973;28;20643;-75
2023/01/17 14:47:21;;;;;;;2.75;1.40;;;18.60;40.40;;;;;;5060597;28;20187;-74
2023/01/17 14:49:48;;;;;;;4.22;1.10;;;18.60;40.20;;;;;;5067952;28;20215;-74
2023/01/17 14:52:17;;;;;;;1.50;1.17;;;18.60;40.20;;;;;;5066504;28;20240;-74
2023/01/17 14:54:48;;;;;;;1.75;1.20;;;18.70;40.50;;;;;;5066036;28;20261;-74
2023/01/17 14:57:22;;;;;;;2.30;1.40;;;18.70;40.40;;;;;;5066791;28;20772;-74
2023/01/17 14:59:49;;;;;;;4.10;1.35;;;18.70;40.40;;;;;;5062776;28;20214;-74
2023/01/17 15:02:18;;;;;;;1.73;1.08;;;18.70;40.50;;;;;;5067893;28;20195;-75
2023/01/17 15:04:53;;;;;;;2.47;1.30;;;18.60;40.30;;;;;;5067539;28;20225;-75
2023/01/17 15:07:20;;;;;;;4.38;1.40;;;18.70;40.30;;;;;;5068301;28;20239;-74
2023/01/17 15:09:47;;;;;;;3.25;1.33;;;18.70;40.50;;;;;;5066816;28;20271;-74
2023/01/17 15:12:14;;;;;;;2.22;1.10;;;18.70;40.30;;;;;;5065845;28;20195;-74
2023/01/17 15:14:46;;;;;;;1.80;1.33;;;18.70;40.30;;;;;;5068183;28;20288;-74
2023/01/17 15:17:18;;;;;;;2.75;1.45;;;18.70;40.40;;;;;;5062197;28;20221;-74
2023/01/17 15:19:48;;;;;;;4.38;1.35;;;18.70;40.30;;;;;;5067770;28;20272;-74
2023/01/17 15:22:17;;;;;;;1.63;1.38;;;18.60;40.30;;;;;;5066945;28;20664;-74
2023/01/17 15:24:46;;;;;;;5.05;1.40;;;18.60;40.40;;;;;;5062672;28;21336;-75
2023/01/17 15:27:15;;;;;;;1.90;1.10;;;18.60;40.20;;;;;;5060732;28;20297;-75
2023/01/17 15:29:45;;;;;;;2.50;1.30;;;18.60;40.20;;;;;;5064763;28;20261;-75
2023/01/17 15:32:19;;;;;;;3.25;1.23;;;18.60;40.20;;;;;;5068080;28;20699;-75
2023/01/17 15:34:48;;;;;;;3.17;1.73;;;18.60;40.20;;;;;;5066627;28;20703;-75
2023/01/17 15:37:28;;;;;;;2.35;1.38;;;18.60;40.20;;;;;;5067469;28;20516;-75
2023/01/17 15:40:04;;;;;;;1.98;1.33;;;18.60;40.20;;;;;;5066236;28;20210;-75
2023/01/17 15:42:34;;;;;;;2.60;1.60;;;18.60;40.20;;;;;;5067862;28;20198;-75
2023/01/17 15:45:06;;;;;;;5.40;1.77;;;18.60;40.20;;;;;;5071649;28;20223;-75
2023/01/17 15:47:37;;;;;;;4.07;1.30;;;18.60;40.20;;;;;;5067566;28;20199;-76
2023/01/17 15:50:28;;;;;;;4.00;1.50;;;18.60;40.20;;;;;;5070403;28;20230;-76
2023/01/17 15:52:59;;;;;;;3.63;1.60;;;18.60;40.20;;;;;;5063365;28;20756;-75
2023/01/17 15:55:31;;;;;;;3.50;1.50;;;18.60;40.20;;;;;;5067888;28;20760;-75
2023/01/17 15:57:58;;;;;;;3.42;1.38;;;18.70;40.30;;;;;;5069987;28;20199;-75
2023/01/17 16:00:36;;;;;;;3.00;1.58;;;18.70;40.30;;;;;;5071642;28;20605;-74
2023/01/17 16:03:20;;;;;;;3.53;1.45;;;18.70;40.30;;;;;;5070563;28;20602;-75
2023/01/17 16:05:48;;;;;;;3.22;1.40;;;18.70;40.30;;;;;;5064695;28;20199;-74
2023/01/17 16:08:51;;;;;;;3.33;1.20;;;18.70;40.30;;;;;;5068504;28;20772;-75
2023/01/17 16:11:18;;;;;;;2.22;1.33;;;18.70;40.20;;;;;;5060685;28;20745;-73
2023/01/17 16:13:46;;;;;;;5.63;1.42;;;18.70;40.30;;;;;;5066498;28;20272;-75
2023/01/17 16:16:17;;;;;;;5.93;1.40;;;18.70;40.20;;;;;;5069350;28;20218;-74
2023/01/17 16:18:46;;;;;;;3.15;1.50;;;18.70;40.30;;;;;;5069202;28;20214;-74
2023/01/17 16:21:18;;;;;;;3.28;1.42;;;18.70;40.20;;;;;;5071011;28;20315;-74
2023/01/17 16:23:46;;;;;;;2.00;1.50;;;18.70;40.10;;;;;;5070481;28;20219;-74
2023/01/17 16:26:13;;;;;;;6.97;1.65;;;18.70;40.00;;;;;;5069365;28;20195;-74
2023/01/17 16:28:41;;;;;;;1.85;1.10;;;18.70;39.90;;;;;;5069836;28;20215;-75
2023/01/17 16:31:08;;;;;;;2.47;1.20;;;18.70;39.90;;;;;;5070332;28;20276;-74
2023/01/17 16:33:38;;;;;;;3.40;1.50;;;18.60;39.80;;;;;;5070567;28;20292;-74
2023/01/17 16:36:05;;;;;;;2.70;1.17;;;18.60;39.80;;;;;;5068697;28;20765;-75
2023/01/17 16:38:33;;;;;;;4.05;1.50;;;18.60;39.90;;;;;;5069249;28;20758;-74
2023/01/17 16:41:03;;;;;;;4.03;1.13;;;18.60;39.80;;;;;;5070426;28;20195;-74
2023/01/17 16:43:30;;;;;;;2.85;1.48;;;18.50;39.70;;;;;;5070273;28;20721;-74
2023/01/17 16:45:57;;;;;;;5.15;1.75;;;18.60;39.70;;;;;;5068803;28;20203;-74
2023/01/17 16:48:25;;;;;;;1.95;1.10;;;18.60;39.60;;;;;;5070233;28;20210;-75
2023/01/17 16:50:53;;;;;;;2.75;1.33;;;18.60;39.50;;;;;;5068676;28;20602;-74
2023/01/17 16:53:22;;;;;;;7.28;1.23;;;18.60;39.70;;;;;;5070717;28;20299;-74
2023/01/17 16:55:50;;;;;;;1.65;1.15;;;18.60;39.60;;;;;;5069298;28;20239;-74
2023/01/17 16:58:19;;;;;;;1.83;1.00;;;18.60;39.50;;;;;;5069446;28;20950;-74
2023/01/17 17:00:46;;;;;;;4.40;1.40;;;18.60;39.50;;;;;;5070283;28;20197;-74
2023/01/17 17:03:16;;;;;;;4.95;1.30;;;18.60;39.50;;;;;;5070069;28;20207;-74
2023/01/17 17:05:46;;;;;;;2.08;1.10;;;18.60;39.40;;;;;;5070379;28;20202;-74
2023/01/17 17:08:15;;;;;;;2.92;1.38;;;18.60;39.20;;;;;;5069812;28;20202;-75
2023/01/17 17:10:42;;;;;;;2.95;1.30;;;18.60;39.00;;;;;;5069211;28;20739;-75
2023/01/17 17:13:09;;;;;;;4.28;1.52;;;18.60;39.30;;;;;;5070718;28;20467;-75
2023/01/17 17:15:42;;;;;;;2.22;1.30;;;18.60;39.00;;;;;;5070178;28;20225;-75
2023/01/17 17:18:13;;;;;;;1.83;1.10;;;18.60;39.00;;;;;;5070102;28;20286;-75
2023/01/17 17:20:41;;;;;;;3.67;1.38;;;18.50;38.90;;;;;;5068988;28;20289;-75
2023/01/17 17:23:09;;;;;;;3.80;1.40;;;18.50;39.00;;;;;;5070247;28;20218;-75
2023/01/17 17:25:37;;;;;;;2.25;1.10;;;18.50;38.90;;;;;;5070346;28;20257;-73
2023/01/17 17:28:05;;;;;;;2.03;1.30;;;18.50;38.70;;;;;;5069532;28;20624;-73
2023/01/17 17:30:34;;;;;;;4.50;1.42;;;18.50;38.90;;;;;;5069972;28;20243;-73
2023/01/17 17:33:03;;;;;;;9.70;1.20;;;18.50;38.70;;;;;;5070769;28;20187;-72
2023/01/17 17:35:33;;;;;;;3.28;1.20;;;18.50;38.80;;;;;;5068277;28;20232;-73
2023/01/17 17:38:00;;;;;;;2.55;1.20;;;18.50;38.70;;;;;;5068516;28;20291;-73
2023/01/17 17:40:27;;;;;;;1.60;1.20;;;18.50;38.70;;;;;;5070470;28;20230;-74
2023/01/17 17:42:55;;;;;;;2.70;1.20;;;18.50;38.70;;;;;;5070186;28;20689;-74
2023/01/17 17:45:23;;;;;;;2.20;1.10;;;18.50;38.60;;;;;;5070210;28;20299;-73
2023/01/17 17:47:50;;;;;;;1.77;1.00;;;18.50;38.70;;;;;;5069563;28;20730;-74
2023/01/17 17:50:17;;;;;;;2.33;1.13;;;18.50;38.70;;;;;;5069314;28;20284;-74
2023/01/17 17:52:44;;;;;;;1.40;1.00;;;18.50;38.20;;;;;;5070418;28;20194;-73
2023/01/17 17:55:11;;;;;;;2.83;1.10;;;18.60;38.10;;;;;;5069153;28;20237;-73
2023/01/17 17:57:39;;;;;;;3.03;1.20;;;18.60;38.20;;;;;;5069389;28;20234;-74
2023/01/17 18:00:09;;;;;;;2.92;1.40;;;18.60;38.10;;;;;;5064181;28;20304;-74
2023/01/17 18:02:36;;;;;;;5.10;1.40;;;18.60;38.10;;;;;;5069807;28;20198;-73
2023/01/17 18:05:03;;;;;;;1.60;1.05;;;18.60;38.10;;;;;;5069974;28;20727;-73
2023/01/17 18:07:31;;;;;;;4.82;1.20;;;18.70;37.90;;;;;;5070717;28;20186;-73
2023/01/17 18:09:58;;;;;;;2.17;1.27;;;18.60;37.50;;;;;;5069593;28;20233;-73
2023/01/17 18:12:26;;;;;;;5.65;1.63;;;18.70;37.40;;;;;;5070610;28;20198;-71
2023/01/17 18:14:53;;;;;;;2.00;1.40;;;18.70;37.40;;;;;;5070813;28;20276;-73
2023/01/17 18:17:21;;;;;;;1.83;1.20;;;18.70;37.50;;;;;;5069643;28;20214;-72
2023/01/17 18:19:48;;;;;;;2.22;1.02;;;18.70;37.60;;;;;;5070698;28;20214;-74
2023/01/17 18:22:15;;;;;;;14.50;1.50;;;18.70;37.70;;;;;;5070230;28;20622;-72
2023/01/17 18:24:42;;;;;;;5.57;1.27;;;18.60;37.50;;;;;;5069954;28;20276;-72
2023/01/17 18:27:10;;;;;;;10.93;1.35;;;18.60;37.40;;;;;;5070416;28;20195;-71
2023/01/17 18:29:37;;;;;;;10.50;1.60;;;18.60;37.40;;;;;;5070143;28;20305;-74
2023/01/17 18:32:04;;;;;;;5.55;1.90;;;18.70;37.50;;;;;;5069946;28;20577;-72
2023/01/17 18:34:34;;;;;;;5.18;1.13;;;18.70;37.10;;;;;;5070392;28;20280;-71
2023/01/17 18:37:01;;;;;;;3.90;1.10;;;18.80;37.20;;;;;;5069414;28;20575;-71
2023/01/17 18:39:30;;;;;;;3.42;1.13;;;18.70;37.20;;;;;;5070347;28;20291;-72
2023/01/17 18:41:57;;;;;;;11.52;1.35;;;18.70;37.30;;;;;;5070541;28;20191;-70
2023/01/17 18:44:26;;;;;;;2.65;1.20;;;18.70;36.90;;;;;;5069743;28;20257;-68
2023/01/17 18:46:54;;;;;;;3.65;1.10;;;18.70;37.00;;;;;;5069894;28;20436;-73
2023/01/17 18:49:21;;;;;;;4.68;1.30;;;18.70;37.10;;;;;;5070163;28;20291;-73
2023/01/17 18:51:50;;;;;;;7.13;1.30;;;18.70;37.10;;;;;;5069725;28;20213;-74
2023/01/17 18:54:17;;;;;;;3.47;1.20;;;18.70;37.10;;;;;;5068253;28;20278;-75
2023/01/17 18:56:44;;;;;;;4.22;1.15;;;18.60;37.10;;;;;;5069613;28;20457;-71
2023/01/17 18:59:12;;;;;;;2.42;1.15;;;18.70;36.40;;;;;;5069836;28;20264;-71
2023/01/17 19:01:42;;;;;;;1.75;0.98;;;18.70;36.80;;;;;;5070084;28;20195;-74
2023/01/17 19:04:10;;;;;;;5.68;1.15;;;18.70;37.00;;;;;;5069368;28;20229;-70
2023/01/17 19:06:40;;;;;;;6.93;1.50;;;18.70;36.30;;;;;;5070077;28;20191;-70
2023/01/17 19:09:10;;;;;;;3.33;1.20;;;18.80;36.70;;;;;;5069242;28;20227;-69
2023/01/17 19:11:37;;;;;;;4.82;1.23;;;18.80;36.80;;;;;;5070052;28;20271;-72
2023/01/17 19:14:05;;;;;;;7.53;1.25;;;18.80;36.60;;;;;;5070506;28;20272;-71
2023/01/17 19:16:34;;;;;;;3.65;1.70;;;18.80;36.30;;;;;;5072216;28;20244;-71
2023/01/17 19:19:03;;;;;;;5.88;1.20;;;18.80;36.50;;;;;;5074853;28;20703;-70
2023/01/17 19:21:31;;;;;;;2.17;1.30;;;18.80;36.40;;;;;;5075029;28;20195;-72
2023/01/17 19:23:58;;;;;;;2.72;1.40;;;18.80;36.30;;;;;;5074666;28;20761;-72
2023/01/17 19:26:27;;;;;;;2.25;1.08;;;18.70;36.30;;;;;;5075359;28;20191;-73
2023/01/17 19:28:57;;;;;;;3.92;1.10;;;18.70;36.30;;;;;;5075411;28;20218;-71
2023/01/17 19:31:26;;;;;;;2.22;1.23;;;18.70;36.10;;;;;;5075800;28;20573;-70
2023/01/17 19:33:56;;;;;;;2.40;1.30;;;18.70;36.00;;;;;;5075477;28;20215;-70
2023/01/17 19:36:25;;;;;;;4.32;1.10;;;18.60;36.10;;;;;;5075574;28;20280;-69
2023/01/17 19:38:53;;;;;;;8.93;1.40;;;18.60;35.90;;;;;;5075665;28;20688;-70
2023/01/17 19:41:25;;;;;;;2.92;1.30;;;18.60;35.80;;;;;;5075165;28;20196;-71
2023/01/17 19:43:55;;;;;;;4.78;1.50;;;18.60;35.80;;;;;;5074277;28;20214;-75
2023/01/17 19:46:24;;;;;;;4.18;1.30;;;18.60;35.20;;;;;;5075366;28;20221;-68
2023/01/17 19:48:52;;;;;;;2.63;1.38;;;18.60;35.80;;;;;;5075508;28;20217;-69
2023/01/17 19:51:19;;;;;;;6.07;1.33;;;18.60;35.70;;;;;;5075036;28;20661;-68
2023/01/17 19:53:46;;;;;;;6.63;1.70;;;18.50;35.70;;;;;;5074862;28;20279;-68
2023/01/17 19:56:16;;;;;;;7.50;1.48;;;18.50;35.90;;;;;;5075329;28;20191;-68
2023/01/17 19:58:44;;;;;;;6.10;1.77;;;18.40;36.00;;;;;;5075327;28;20235;-68
2023/01/17 20:01:15;;;;;;;3.85;1.10;;;18.40;36.20;;;;;;5075059;28;20224;-71
2023/01/17 20:03:44;;;;;;;5.70;1.35;;;18.40;36.30;;;;;;5075225;28;20276;-71
2023/01/17 20:06:12;;;;;;;3.72;1.20;;;18.30;36.10;;;;;;5075084;28;20273;-71
2023/01/17 20:08:40;;;;;;;5.25;1.45;;;18.30;36.20;;;;;;5075039;28;20271;-71
2023/01/17 20:11:08;;;;;;;4.30;1.55;;;18.30;35.80;;;;;;5074744;28;20637;-71
2023/01/17 20:13:35;;;;;;;1.60;1.10;;;18.20;35.60;;;;;;5075027;28;20214;-71
2023/01/17 20:16:03;;;;;;;3.30;1.38;;;18.20;35.10;;;;;;5074866;28;20217;-71
2023/01/17 20:18:33;;;;;;;4.57;1.45;;;18.20;35.30;;;;;;5074504;28;20738;-71
2023/01/17 20:21:04;;;;;;;2.97;1.30;;;18.20;35.40;;;;;;5074899;28;20195;-72
2023/01/17 20:23:35;;;;;;;2.78;1.25;;;18.20;35.10;;;;;;5075125;28;20261;-71
2023/01/17 20:26:03;;;;;;;1.98;1.00;;;18.20;35.10;;;;;;5074765;28;20193;-71
2023/01/17 20:28:31;;;;;;;5.55;1.50;;;18.10;34.90;;;;;;5073945;28;20195;-68
2023/01/17 20:31:05;;;;;;;2.90;1.33;;;18.10;34.80;;;;;;5074685;28;20256;-68
2023/01/17 20:33:34;;;;;;;2.60;1.50;;;18.10;34.90;;;;;;5074342;28;20233;-69
2023/01/17 20:36:01;;;;;;;2.83;1.40;;;18.10;34.80;;;;;;5074530;28;20191;-68
2023/01/17 20:38:29;;;;;;;2.85;1.50;;;18.00;34.80;;;;;;5074498;28;20219;-69
2023/01/17 20:40:56;;;;;;;3.63;1.67;;;18.00;34.80;;;;;;5074260;28;20617;-68
2023/01/17 20:43:23;;;;;;;1.75;1.13;;;17.90;34.70;;;;;;5074176;28;20236;-69
2023/01/17 20:45:56;;;;;;;2.25;1.40;;;17.90;34.70;;;;;;5074081;28;20191;-69
2023/01/17 20:48:23;;;;;;;7.13;1.73;;;17.90;34.70;;;;;;5074254;28;20187;-69
2023/01/17 20:50:53;;;;;;;3.50;1.55;;;17.90;34.70;;;;;;5074597;28;20191;-69
2023/01/17 20:53:20;;;;;;;4.88;1.45;;;17.90;34.70;;;;;;5074039;28;20281;-70
2023/01/17 20:55:55;;;;;;;1.70;1.40;;;17.80;34.60;;;;;;5073854;28;20702;-69
2023/01/17 20:58:22;;;;;;;3.15;1.48;;;17.80;34.60;;;;;;5074162;28;20222;-68
2023/01/17 21:00:49;;;;;;;4.32;1.75;;;17.80;34.60;;;;;;5074187;28;20274;-69
2023/01/17 21:03:16;;;;;;;2.30;1.50;;;17.70;34.50;;;;;;5074090;28;20226;-69
2023/01/17 21:05:43;;;;;;;2.28;1.40;;;17.70;34.50;;;;;;5074222;28;20264;-68
2023/01/17 21:08:13;;;;;;;1.92;1.38;;;17.80;34.60;;;;;;5073630;28;20248;-67
2023/01/17 21:10:46;;;;;;;1.55;1.45;;;17.70;34.50;;;;;;5073716;28;20727;-68
2023/01/17 21:13:13;;;;;;;1.40;1.30;;;17.70;34.50;;;;;;5073939;28;20252;-68
2023/01/17 21:15:42;;;;;;;2.00;1.50;;;17.70;34.50;;;;;;5073786;28;20698;-68
2023/01/17 21:18:09;;;;;;;2.28;1.42;;;17.70;34.50;;;;;;5073343;28;20765;-68
2023/01/17 21:20:37;;;;;;;2.72;1.38;;;17.60;34.50;;;;;;5073439;28;20223;-68
2023/01/17 21:23:07;;;;;;;1.92;1.48;;;17.60;34.40;;;;;;5073482;28;20190;-69
2023/01/17 21:25:36;;;;;;;2.58;1.60;;;17.60;34.40;;;;;;5073420;28;20261;-69
2023/01/17 21:28:04;;;;;;;5.32;1.58;;;17.60;34.40;;;;;;5073447;28;20198;-69
2023/01/17 21:30:32;;;;;;;3.00;1.52;;;17.60;34.40;;;;;;5073754;28;20305;-68
2023/01/17 21:33:02;;;;;;;3.17;1.27;;;17.60;34.40;;;;;;5073508;28;20252;-68
2023/01/17 21:35:30;;;;;;;1.77;1.42;;;17.50;34.30;;;;;;5073385;28;20214;-69
2023/01/17 21:37:57;;;;;;;2.33;1.45;;;17.50;34.30;;;;;;5073053;28;20256;-69
2023/01/17 21:40:26;;;;;;;2.20;1.20;;;17.50;34.30;;;;;;5072902;28;20576;-68
2023/01/17 21:42:55;;;;;;;3.15;1.40;;;17.50;34.40;;;;;;5072350;28;20204;-68
2023/01/17 21:45:25;;;;;;;2.58;1.17;;;17.50;34.00;;;;;;5073468;28;20218;-69
2023/01/17 21:47:54;;;;;;;2.83;1.40;;;17.50;34.30;;;;;;5072939;28;20248;-69
2023/01/17 21:50:21;;;;;;;3.38;1.30;;;17.40;34.20;;;;;;5073526;28;20218;-69
2023/01/17 21:52:48;;;;;;;3.05;1.23;;;17.50;33.90;;;;;;5073259;28;20191;-69
2023/01/17 22:00:45;;;;;;;2.97;1.65;;;17.40;34.60;;;;;;5073019;28;20315;-68
2023/01/17 22:03:12;;;;;;;1.88;1.27;;;17.40;34.10;;;;;;5072682;28;20599;-68
2023/01/17 22:05:39;;;;;;;2.03;1.40;;;17.40;33.90;;;;;;5073085;28;20218;-68
2023/01/17 22:08:13;;;;;;;2.05;1.10;;;17.30;34.10;;;;;;5072760;28;20228;-70
2023/01/17 22:10:56;;;;;;;2.70;1.35;;;17.30;34.50;;;;;;5072808;28;20213;-68
2023/01/17 22:13:37;;;;;;;1.20;1.10;;;17.30;33.80;;;;;;5072510;28;20191;-67
2023/01/17 22:16:07;;;;;;;1.27;1.10;;;17.30;33.80;;;;;;5072342;28;20240;-69
2023/01/17 22:18:37;;;;;;;1.45;1.30;;;17.30;33.70;;;;;;5072308;28;20704;-69
2023/01/17 22:21:07;;;;;;;2.10;1.40;;;17.30;33.70;;;;;;5072626;28;20191;-68
2023/01/17 22:23:35;;;;;;;1.70;1.40;;;17.20;33.60;;;;;;5072566;28;20220;-69
2023/01/17 22:26:07;;;;;;;1.20;1.10;;;17.20;33.50;;;;;;5072389;28;20232;-69
2023/01/17 22:28:37;;;;;;;1.42;1.20;;;17.30;33.50;;;;;;5072194;28;20649;-69
2023/01/17 22:31:09;;;;;;;2.22;1.10;;;17.30;33.60;;;;;;5072207;28;20187;-68
2023/01/17 22:33:37;;;;;;;3.40;1.30;;;17.30;33.40;;;;;;5072103;28;20199;-69
2023/01/17 22:36:05;;;;;;;2.15;1.40;;;17.30;33.50;;;;;;5072337;28;20199;-68
2023/01/17 22:38:32;;;;;;;3.15;1.30;;;17.20;33.30;;;;;;5072100;28;20268;-68
2023/01/17 22:41:06;;;;;;;3.97;1.08;;;17.20;33.30;;;;;;5072410;28;20216;-68
2023/01/17 22:43:37;;;;;;;2.08;1.30;;;17.20;34.10;;;;;;5072372;28;20193;-68
2023/01/17 22:46:09;;;;;;;3.22;1.40;;;17.20;33.60;;;;;;5071946;28;20191;-68
2023/01/17 22:48:37;;;;;;;1.83;1.38;;;17.20;33.50;;;;;;5072300;28;20274;-68
2023/01/17 22:51:07;;;;;;;1.67;1.10;;;17.20;33.50;;;;;;5071892;28;20191;-68
2023/01/17 22:53:40;;;;;;;1.40;1.30;;;17.20;33.70;;;;;;5072004;28;20191;-68
2023/01/17 22:56:10;;;;;;;1.55;0.93;;;17.10;33.60;;;;;;5071721;28;20238;-68
2023/01/17 22:58:43;;;;;;;1.83;1.20;;;17.10;33.40;;;;;;5071748;28;20309;-68
2023/01/17 23:01:11;;;;;;;1.48;1.00;;;17.10;33.40;;;;;;5071998;28;20672;-68
2023/01/17 23:03:39;;;;;;;1.40;1.30;;;17.10;33.40;;;;;;5072135;28;20195;-68
2023/01/17 23:06:14;;;;;;;1.70;1.10;;;17.10;33.30;;;;;;5072044;28;20214;-69
2023/01/17 23:08:43;;;;;;;1.35;0.98;;;17.10;33.40;;;;;;5072013;28;20537;-68
2023/01/17 23:11:41;;;;;;;2.60;1.23;;;17.10;33.30;;;;;;5072229;28;20187;-67
2023/01/17 23:14:20;;;;;;;1.15;0.90;;;17.10;33.20;;;;;;5072106;28;20222;-69
2023/01/17 23:19:35;;;;;;;1.50;1.20;;;17.10;33.40;;;;;;5071679;28;20299;-69
2023/01/17 23:22:17;;;;;;;1.50;1.20;;;17.10;33.40;;;;;;5071670;28;20203;-68
2023/01/17 23:24:51;;;;;;;1.60;1.10;;;17.00;33.20;;;;;;5072072;28;20568;-68
2023/01/17 23:30:10;;;;;;;1.38;1.27;;;17.10;33.10;;;;;;5072028;28;20213;-68
2023/01/17 23:32:37;;;;;;;1.80;1.27;;;17.10;33.40;;;;;;5071606;28;20278;-69
2023/01/17 23:35:05;;;;;;;1.40;1.30;;;17.10;33.40;;;;;;5071965;28;20268;-68
2023/01/17 23:40:18;;;;;;;1.38;1.27;;;17.00;33.10;;;;;;5071823;28;20271;-70
2023/01/17 23:45:33;;;;;;;2.88;1.40;;;17.00;32.90;;;;;;5071791;28;20210;-68
2023/01/17 23:48:00;;;;;;;1.20;1.10;;;17.10;33.10;;;;;;5071237;28;20213;-69
2023/01/17 23:50:27;;;;;;;1.67;1.38;;;17.00;33.10;;;;;;5071895;28;20222;-68
2023/01/17 23:52:54;;;;;;;1.60;1.20;;;17.00;33.30;;;;;;5072256;28;20192;-69
2023/01/17 23:55:21;;;;;;;1.60;1.40;;;17.00;33.10;;;;;;5071325;28;20231;-68
2023/01/17 23:57:49;;;;;;;1.20;1.10;;;17.00;33.10;;;;;;5071394;28;20199;-68
